sensor_id;sensor_type;location;lat;lon;timestamp;pressure;altitude;pressure_sealevel;temperature;humidity
78573;BME280;67862;0.000;0.000;2023-04-23T00:01:28;98904.22;;;18.98;46.32
78573;BME280;67862;0.000;0.000;2023-04-23T00:03:55;98902.59;;;18.97;46.31
78573;BME280;67862;0.000;0.000;2023-04-23T00:06:21;98898.25;;;18.96;46.23
78573;BME280;67862;0.000;0.000;2023-04-23T00:08:47;98899.88;;;18.97;46.16
78573;BME280;67862;0.000;0.000;2023-04-23T00:11:16;98905.31;;;18.97;46.19
78573;BME280;67862;0.000;0.000;2023-04-23T00:13:45;98900.16;;;18.96;46.16
78573;BME280;67862;0.000;0.000;2023-04-23T00:16:12;98906.41;;;18.96;46.29
78573;BME280;67862;0.000;0.000;2023-04-23T00:18:37;98898.25;;;18.96;46.30
78573;BME280;67862;0.000;0.000;2023-04-23T00:21:03;98902.06;;;18.95;46.35
78573;BME280;67862;0.000;0.000;2023-04-23T00:23:28;98900.16;;;18.96;46.27
78573;BME280;67862;0.000;0.000;2023-04-23T00:25:53;98900.44;;;18.94;46.18
78573;BME280;67862;0.000;0.000;2023-04-23T00:28:19;98896.63;;;18.95;46.40
78573;BME280;67862;0.000;0.000;2023-04-23T00:30:45;98899.34;;;18.95;46.34
78573;BME280;67862;0.000;0.000;2023-04-23T00:33:10;98895.00;;;18.94;46.14
78573;BME280;67862;0.000;0.000;2023-04-23T00:35:35;98897.72;;;18.94;46.26
78573;BME280;67862;0.000;0.000;2023-04-23T00:38:01;98897.72;;;18.94;46.33
78573;BME280;67862;0.000;0.000;2023-04-23T00:40:26;98896.09;;;18.93;46.32
78573;BME280;67862;0.000;0.000;2023-04-23T00:42:52;98893.38;;;18.93;46.19
78573;BME280;67862;0.000;0.000;2023-04-23T00:45:18;98889.84;;;18.93;46.25
78573;BME280;67862;0.000;0.000;2023-04-23T00:47:43;98887.38;;;18.91;46.29
78573;BME280;67862;0.000;0.000;2023-04-23T00:50:10;98889.03;;;18.92;46.35
78573;BME280;67862;0.000;0.000;2023-04-23T00:52:37;98887.94;;;18.93;46.32
78573;BME280;67862;0.000;0.000;2023-04-23T00:55:04;98889.84;;;18.93;46.20
78573;BME280;67862;0.000;0.000;2023-04-23T00:57:30;98886.56;;;18.91;46.32
78573;BME280;67862;0.000;0.000;2023-04-23T00:59:56;98884.66;;;18.91;46.33
78573;BME280;67862;0.000;0.000;2023-04-23T01:02:22;98879.22;;;18.91;46.39
78573;BME280;67862;0.000;0.000;2023-04-23T01:04:48;98890.09;;;18.91;46.03
78573;BME280;67862;0.000;0.000;2023-04-23T01:07:18;98890.09;;;18.91;46.22
78573;BME280;67862;0.000;0.000;2023-04-23T01:09:44;98890.09;;;18.91;46.30
78573;BME280;67862;0.000;0.000;2023-04-23T01:12:09;98892.81;;;18.91;46.24
78573;BME280;67862;0.000;0.000;2023-04-23T01:14:36;98889.28;;;18.91;46.33
78573;BME280;67862;0.000;0.000;2023-04-23T01:17:01;98892.00;;;18.91;46.35
78573;BME280;67862;0.000;0.000;2023-04-23T01:19:27;98894.22;;;18.88;46.24
78573;BME280;67862;0.000;0.000;2023-04-23T01:21:52;98888.78;;;18.88;46.23
78573;BME280;67862;0.000;0.000;2023-04-23T01:24:18;98891.50;;;18.88;46.19
78573;BME280;67862;0.000;0.000;2023-04-23T01:26:43;98894.50;;;18.87;46.23
78573;BME280;67862;0.000;0.000;2023-04-23T01:29:09;98885.25;;;18.88;46.35
78573;BME280;67862;0.000;0.000;2023-04-23T01:31:35;98891.78;;;18.87;46.42
78573;BME280;67862;0.000;0.000;2023-04-23T01:34:01;98886.34;;;18.87;46.28
78573;BME280;67862;0.000;0.000;2023-04-23T01:36:26;98879.00;;;18.87;46.10
78573;BME280;67862;0.000;0.000;2023-04-23T01:38:52;98887.44;;;18.86;46.36
78573;BME280;67862;0.000;0.000;2023-04-23T01:41:17;98884.72;;;18.86;46.19
78573;BME280;67862;0.000;0.000;2023-04-23T01:43:42;98884.72;;;18.86;46.67
78573;BME280;67862;0.000;0.000;2023-04-23T01:46:08;98876.56;;;18.86;46.18
78573;BME280;67862;0.000;0.000;2023-04-23T01:48:35;98880.09;;;18.86;46.25
78573;BME280;67862;0.000;0.000;2023-04-23T01:51:00;98881.19;;;18.85;46.28
78573;BME280;67862;0.000;0.000;2023-04-23T01:53:26;98882.00;;;18.86;46.26
78573;BME280;67862;0.000;0.000;2023-04-23T01:55:51;98872.22;;;18.85;46.38
78573;BME280;67862;0.000;0.000;2023-04-23T01:58:18;98873.03;;;18.85;46.44
78573;BME280;67862;0.000;0.000;2023-04-23T02:00:43;98873.03;;;18.85;46.32
78573;BME280;67862;0.000;0.000;2023-04-23T02:03:11;98875.75;;;18.85;46.24
78573;BME280;67862;0.000;0.000;2023-04-23T02:05:40;98880.38;;;18.85;46.33
78573;BME280;67862;0.000;0.000;2023-04-23T02:08:05;98874.13;;;18.84;46.57
78573;BME280;67862;0.000;0.000;2023-04-23T02:10:31;98872.50;;;18.83;46.25
78573;BME280;67862;0.000;0.000;2023-04-23T02:12:57;98869.78;;;18.83;46.42
78573;BME280;67862;0.000;0.000;2023-04-23T02:15:22;98867.88;;;18.84;46.68
78573;BME280;67862;0.000;0.000;2023-04-23T02:17:48;98868.69;;;18.84;46.30
78573;BME280;67862;0.000;0.000;2023-04-23T02:20:16;98866.25;;;18.83;46.43
78573;BME280;67862;0.000;0.000;2023-04-23T02:22:42;98867.34;;;18.82;46.34
78573;BME280;67862;0.000;0.000;2023-04-23T02:25:07;98864.63;;;18.82;46.48
78573;BME280;67862;0.000;0.000;2023-04-23T02:27:33;98866.50;;;18.81;46.30
78573;BME280;67862;0.000;0.000;2023-04-23T02:29:59;98864.63;;;18.82;46.26
78573;BME280;67862;0.000;0.000;2023-04-23T02:32:25;98861.06;;;18.81;46.50
78573;BME280;67862;0.000;0.000;2023-04-23T02:34:50;98857.53;;;18.81;46.33
78573;BME280;67862;0.000;0.000;2023-04-23T02:37:16;98857.53;;;18.81;46.44
78573;BME280;67862;0.000;0.000;2023-04-23T02:39:41;98852.09;;;18.81;46.32
78573;BME280;67862;0.000;0.000;2023-04-23T02:42:06;98856.72;;;18.80;46.35
78573;BME280;67862;0.000;0.000;2023-04-23T02:44:32;98854.00;;;18.80;46.47
78573;BME280;67862;0.000;0.000;2023-04-23T02:46:57;98856.19;;;18.78;46.34
78573;BME280;67862;0.000;0.000;2023-04-23T02:49:23;98855.91;;;18.80;46.37
78573;BME280;67862;0.000;0.000;2023-04-23T02:51:48;98853.47;;;18.78;46.47
78573;BME280;67862;0.000;0.000;2023-04-23T02:54:13;98864.06;;;18.80;46.48
78573;BME280;67862;0.000;0.000;2023-04-23T02:56:39;98855.09;;;18.79;46.56
78573;BME280;67862;0.000;0.000;2023-04-23T02:59:05;98858.91;;;18.78;46.38
78573;BME280;67862;0.000;0.000;2023-04-23T03:01:31;98852.66;;;18.78;46.46
78573;BME280;67862;0.000;0.000;2023-04-23T03:03:56;98855.38;;;18.78;46.55
78573;BME280;67862;0.000;0.000;2023-04-23T03:06:22;98853.47;;;18.78;46.57
78573;BME280;67862;0.000;0.000;2023-04-23T03:08:47;98851.03;;;18.77;46.28
78573;BME280;67862;0.000;0.000;2023-04-23T03:11:13;98841.25;;;18.76;46.38
78573;BME280;67862;0.000;0.000;2023-04-23T03:13:38;98849.41;;;18.76;46.53
78573;BME280;67862;0.000;0.000;2023-04-23T03:16:03;98846.41;;;18.77;46.45
78573;BME280;67862;0.000;0.000;2023-04-23T03:18:29;98852.94;;;18.76;46.53
78573;BME280;67862;0.000;0.000;2023-04-23T03:20:54;98849.41;;;18.76;46.34
78573;BME280;67862;0.000;0.000;2023-04-23T03:23:20;98852.13;;;18.76;46.34
78573;BME280;67862;0.000;0.000;2023-04-23T03:25:45;98853.75;;;18.77;46.55
78573;BME280;67862;0.000;0.000;2023-04-23T03:28:11;98846.97;;;18.74;46.35
78573;BME280;67862;0.000;0.000;2023-04-23T03:30:36;98849.41;;;18.76;46.56
78573;BME280;67862;0.000;0.000;2023-04-23T03:33:02;98853.22;;;18.75;46.50
78573;BME280;67862;0.000;0.000;2023-04-23T03:35:27;98853.22;;;18.75;46.52
78573;BME280;67862;0.000;0.000;2023-04-23T03:37:52;98856.25;;;18.73;46.47
78573;BME280;67862;0.000;0.000;2023-04-23T03:40:18;98853.53;;;18.73;46.41
78573;BME280;67862;0.000;0.000;2023-04-23T03:42:44;98853.22;;;18.75;46.42
78573;BME280;67862;0.000;0.000;2023-04-23T03:45:10;98858.97;;;18.73;46.59
78573;BME280;67862;0.000;0.000;2023-04-23T03:47:35;98855.44;;;18.73;46.69
78573;BME280;67862;0.000;0.000;2023-04-23T03:50:01;98855.44;;;18.73;46.47
78573;BME280;67862;0.000;0.000;2023-04-23T03:52:26;98858.97;;;18.73;46.56
78573;BME280;67862;0.000;0.000;2023-04-23T03:54:51;98860.88;;;18.73;46.47
78573;BME280;67862;0.000;0.000;2023-04-23T03:57:17;98852.97;;;18.71;46.59
78573;BME280;67862;0.000;0.000;2023-04-23T03:59:42;98859.22;;;18.72;46.56
78573;BME280;67862;0.000;0.000;2023-04-23T04:02:07;98859.22;;;18.72;46.37
78573;BME280;67862;0.000;0.000;2023-04-23T04:04:33;98863.59;;;18.73;46.51
78573;BME280;67862;0.000;0.000;2023-04-23T04:06:58;98866.56;;;18.71;46.43
78573;BME280;67862;0.000;0.000;2023-04-23T04:09:26;98863.84;;;18.71;46.60
78573;BME280;67862;0.000;0.000;2023-04-23T04:11:52;98863.84;;;18.71;46.53
78573;BME280;67862;0.000;0.000;2023-04-23T04:14:18;98860.31;;;18.71;46.57
78573;BME280;67862;0.000;0.000;2023-04-23T04:16:43;98858.69;;;18.70;46.26
78573;BME280;67862;0.000;0.000;2023-04-23T04:19:09;98864.13;;;18.70;46.39
78573;BME280;67862;0.000;0.000;2023-04-23T04:21:35;98874.72;;;18.71;46.55
78573;BME280;67862;0.000;0.000;2023-04-23T04:24:01;98875.81;;;18.70;46.58
78573;BME280;67862;0.000;0.000;2023-04-23T04:26:27;98876.91;;;18.69;46.54
78573;BME280;67862;0.000;0.000;2023-04-23T04:28:52;98869.56;;;18.70;46.71
78573;BME280;67862;0.000;0.000;2023-04-23T04:31:18;98875.81;;;18.70;46.55
78573;BME280;67862;0.000;0.000;2023-04-23T04:33:46;98873.38;;;18.69;46.68
78573;BME280;67862;0.000;0.000;2023-04-23T04:36:11;98870.66;;;18.69;46.54
78573;BME280;67862;0.000;0.000;2023-04-23T04:38:37;98870.66;;;18.69;46.41
78573;BME280;67862;0.000;0.000;2023-04-23T04:41:03;98871.47;;;18.69;46.33
78573;BME280;67862;0.000;0.000;2023-04-23T04:43:29;98876.09;;;18.69;46.64
78573;BME280;67862;0.000;0.000;2023-04-23T04:45:54;98879.09;;;18.67;46.55
78573;BME280;67862;0.000;0.000;2023-04-23T04:48:20;98883.44;;;18.68;46.50
78573;BME280;67862;0.000;0.000;2023-04-23T04:50:45;98881.53;;;18.69;46.67
78573;BME280;67862;0.000;0.000;2023-04-23T04:53:11;98881.53;;;18.69;46.38
78573;BME280;67862;0.000;0.000;2023-04-23T04:55:36;98890.78;;;18.68;46.51
78573;BME280;67862;0.000;0.000;2023-04-23T04:58:02;98882.63;;;18.68;46.48
78573;BME280;67862;0.000;0.000;2023-04-23T05:00:28;98888.06;;;18.68;46.57
78573;BME280;67862;0.000;0.000;2023-04-23T05:02:54;98881.00;;;18.67;46.54
78573;BME280;67862;0.000;0.000;2023-04-23T05:05:21;98879.09;;;18.67;46.66
78573;BME280;67862;0.000;0.000;2023-04-23T05:07:47;98885.34;;;18.68;46.61
78573;BME280;67862;0.000;0.000;2023-04-23T05:10:12;98885.34;;;18.68;46.48
78573;BME280;67862;0.000;0.000;2023-04-23T05:12:38;98888.06;;;18.68;46.54
78573;BME280;67862;0.000;0.000;2023-04-23T05:15:07;98886.44;;;18.67;46.53
78573;BME280;67862;0.000;0.000;2023-04-23T05:17:33;98881.00;;;18.67;46.51
78573;BME280;67862;0.000;0.000;2023-04-23T05:20:02;98889.97;;;18.67;46.48
78573;BME280;67862;0.000;0.000;2023-04-23T05:22:28;98889.97;;;18.67;46.50
78573;BME280;67862;0.000;0.000;2023-04-23T05:24:53;98884.81;;;18.66;46.64
78573;BME280;67862;0.000;0.000;2023-04-23T05:27:18;98888.34;;;18.66;46.39
78573;BME280;67862;0.000;0.000;2023-04-23T05:29:44;98884.81;;;18.66;46.49
78573;BME280;67862;0.000;0.000;2023-04-23T05:32:09;98885.63;;;18.66;46.57
78573;BME280;67862;0.000;0.000;2023-04-23T05:34:35;98886.72;;;18.65;46.56
78573;BME280;67862;0.000;0.000;2023-04-23T05:37:00;98898.41;;;18.66;46.52
78573;BME280;67862;0.000;0.000;2023-04-23T05:39:26;98896.50;;;18.66;46.48
78573;BME280;67862;0.000;0.000;2023-04-23T05:41:51;98898.41;;;18.66;46.61
78573;BME280;67862;0.000;0.000;2023-04-23T05:44:17;98898.41;;;18.66;46.51
78573;BME280;67862;0.000;0.000;2023-04-23T05:46:42;98892.97;;;18.66;46.38
78573;BME280;67862;0.000;0.000;2023-04-23T05:49:08;98899.22;;;18.66;46.49
78573;BME280;67862;0.000;0.000;2023-04-23T05:51:33;98890.78;;;18.68;46.26
78573;BME280;67862;0.000;0.000;2023-04-23T05:53:58;98895.13;;;18.69;46.35
78573;BME280;67862;0.000;0.000;2023-04-23T05:56:31;98898.66;;;18.69;46.37
78573;BME280;67862;0.000;0.000;2023-04-23T05:59:04;98898.38;;;18.71;46.29
78573;BME280;67862;0.000;0.000;2023-04-23T06:01:32;98899.47;;;18.70;46.35
78573;BME280;67862;0.000;0.000;2023-04-23T06:03:57;98899.19;;;18.71;46.34
78573;BME280;67862;0.000;0.000;2023-04-23T06:06:23;98903.56;;;18.72;46.14
78573;BME280;67862;0.000;0.000;2023-04-23T06:08:48;98903.28;;;18.74;46.35
78573;BME280;67862;0.000;0.000;2023-04-23T06:11:15;98910.34;;;18.75;46.23
78573;BME280;67862;0.000;0.000;2023-04-23T06:13:40;98903.81;;;18.76;46.18
78573;BME280;67862;0.000;0.000;2023-04-23T06:16:09;98910.88;;;18.77;46.22
78573;BME280;67862;0.000;0.000;2023-04-23T06:18:38;98908.66;;;18.79;45.99
78573;BME280;67862;0.000;0.000;2023-04-23T06:21:07;98910.28;;;18.80;45.98
78573;BME280;67862;0.000;0.000;2023-04-23T06:23:33;98913.56;;;18.82;46.01
78573;BME280;67862;0.000;0.000;2023-04-23T06:26:01;98913.28;;;18.83;45.90
78573;BME280;67862;0.000;0.000;2023-04-23T06:28:28;98917.63;;;18.84;45.90
78573;BME280;67862;0.000;0.000;2023-04-23T06:30:53;98917.34;;;18.86;46.03
78573;BME280;67862;0.000;0.000;2023-04-23T06:33:19;98911.63;;;18.87;46.04
78573;BME280;67862;0.000;0.000;2023-04-23T06:35:47;98910.53;;;18.88;45.73
78573;BME280;67862;0.000;0.000;2023-04-23T06:38:12;98914.31;;;18.93;45.70
78573;BME280;67862;0.000;0.000;2023-04-23T06:40:38;98919.78;;;18.93;45.67
78573;BME280;67862;0.000;0.000;2023-04-23T06:43:06;98914.28;;;18.98;45.79
78573;BME280;67862;0.000;0.000;2023-04-23T06:45:44;98921.63;;;19.02;45.88
78573;BME280;67862;0.000;0.000;2023-04-23T06:48:10;98913.41;;;19.07;45.68
78573;BME280;67862;0.000;0.000;2023-04-23T06:50:35;98920.47;;;19.08;45.46
78573;BME280;67862;0.000;0.000;2023-04-23T06:53:01;98916.41;;;19.11;45.69
78573;BME280;67862;0.000;0.000;2023-04-23T06:55:26;98908.78;;;19.13;45.29
78573;BME280;67862;0.000;0.000;2023-04-23T06:57:53;98919.38;;;19.14;45.62
78573;BME280;67862;0.000;0.000;2023-04-23T07:00:18;98917.16;;;19.16;45.30
78573;BME280;67862;0.000;0.000;2023-04-23T07:02:44;98914.16;;;19.18;45.36
78573;BME280;67862;0.000;0.000;2023-04-23T07:05:10;98916.59;;;19.20;45.47
78573;BME280;67862;0.000;0.000;2023-04-23T07:07:36;98910.63;;;19.23;45.38
78573;BME280;67862;0.000;0.000;2023-04-23T07:10:03;98918.78;;;19.23;45.24
78573;BME280;67862;0.000;0.000;2023-04-23T07:12:28;98916.06;;;19.23;45.60
78573;BME280;67862;0.000;0.000;2023-04-23T07:14:54;98915.47;;;19.26;45.41
78573;BME280;67862;0.000;0.000;2023-04-23T07:17:20;98915.19;;;19.27;45.24
78573;BME280;67862;0.000;0.000;2023-04-23T07:19:45;98913.00;;;19.29;45.22
78573;BME280;67862;0.000;0.000;2023-04-23T07:22:12;98917.63;;;19.29;45.29
78573;BME280;67862;0.000;0.000;2023-04-23T07:24:37;98910.03;;;19.31;45.49
78573;BME280;67862;0.000;0.000;2023-04-23T07:27:02;98911.63;;;19.32;45.38
78573;BME280;67862;0.000;0.000;2023-04-23T07:29:28;98914.06;;;19.33;45.35
78573;BME280;67862;0.000;0.000;2023-04-23T07:31:53;98913.25;;;19.33;45.25
78573;BME280;67862;0.000;0.000;2023-04-23T07:34:19;98914.06;;;19.33;45.39
78573;BME280;67862;0.000;0.000;2023-04-23T07:36:44;98913.50;;;19.36;45.39
78573;BME280;67862;0.000;0.000;2023-04-23T07:39:10;98909.97;;;19.36;45.24
78573;BME280;67862;0.000;0.000;2023-04-23T07:41:35;98921.38;;;19.38;45.32
78573;BME280;67862;0.000;0.000;2023-04-23T07:44:04;98914.03;;;19.38;45.40
78573;BME280;67862;0.000;0.000;2023-04-23T07:46:30;98903.94;;;19.39;45.17
78573;BME280;67862;0.000;0.000;2023-04-23T07:48:55;98906.41;;;19.40;45.30
78573;BME280;67862;0.000;0.000;2023-04-23T07:51:21;98917.00;;;19.42;45.60
78573;BME280;67862;0.000;0.000;2023-04-23T07:53:50;98915.38;;;19.41;45.65
78573;BME280;67862;0.000;0.000;2023-04-23T07:56:19;98906.41;;;19.40;45.40
78573;BME280;67862;0.000;0.000;2023-04-23T07:58:45;98914.56;;;19.40;45.55
78573;BME280;67862;0.000;0.000;2023-04-23T08:01:11;98907.75;;;19.43;45.42
78573;BME280;67862;0.000;0.000;2023-04-23T08:03:47;98916.72;;;19.43;45.39
78573;BME280;67862;0.000;0.000;2023-04-23T08:06:15;98910.19;;;19.44;45.50
78573;BME280;67862;0.000;0.000;2023-04-23T08:08:40;98914.53;;;19.45;45.37
78573;BME280;67862;0.000;0.000;2023-04-23T08:11:06;98912.91;;;19.44;45.64
78573;BME280;67862;0.000;0.000;2023-04-23T08:13:31;98917.53;;;19.44;45.62
78573;BME280;67862;0.000;0.000;2023-04-23T08:15:57;98910.19;;;19.44;45.58
78573;BME280;67862;0.000;0.000;2023-04-23T08:18:22;98908.25;;;19.45;45.57
78573;BME280;67862;0.000;0.000;2023-04-23T08:20:47;98911.00;;;19.45;45.66
78573;BME280;67862;0.000;0.000;2023-04-23T08:23:13;98912.31;;;19.48;45.33
78573;BME280;67862;0.000;0.000;2023-04-23T08:25:38;98907.69;;;19.48;45.56
78573;BME280;67862;0.000;0.000;2023-04-23T08:28:04;98906.59;;;19.49;45.43
78573;BME280;67862;0.000;0.000;2023-04-23T08:30:30;98905.78;;;19.49;45.55
78573;BME280;67862;0.000;0.000;2023-04-23T08:32:55;98904.97;;;19.48;45.48
78573;BME280;67862;0.000;0.000;2023-04-23T08:35:22;98903.88;;;19.49;45.46
78573;BME280;67862;0.000;0.000;2023-04-23T08:37:48;98905.53;;;19.50;45.48
78573;BME280;67862;0.000;0.000;2023-04-23T08:40:16;98904.72;;;19.50;45.51
78573;BME280;67862;0.000;0.000;2023-04-23T08:42:48;98902.81;;;19.50;45.42
78573;BME280;67862;0.000;0.000;2023-04-23T08:45:15;98905.22;;;19.52;45.51
78573;BME280;67862;0.000;0.000;2023-04-23T08:47:40;98905.22;;;19.52;45.65
78573;BME280;67862;0.000;0.000;2023-04-23T08:50:10;98900.59;;;19.52;45.74
78573;BME280;67862;0.000;0.000;2023-04-23T08:52:37;98896.78;;;19.53;45.61
78573;BME280;67862;0.000;0.000;2023-04-23T08:55:03;98895.16;;;19.52;45.56
78573;BME280;67862;0.000;0.000;2023-04-23T08:57:29;98894.06;;;19.53;45.63
78573;BME280;67862;0.000;0.000;2023-04-23T08:59:54;98897.59;;;19.54;45.65
78573;BME280;67862;0.000;0.000;2023-04-23T09:02:21;98892.94;;;19.54;45.63
78573;BME280;67862;0.000;0.000;2023-04-23T09:04:47;98897.28;;;19.55;45.50
78573;BME280;67862;0.000;0.000;2023-04-23T09:07:13;98889.13;;;19.55;45.59
78573;BME280;67862;0.000;0.000;2023-04-23T09:12:17;98886.41;;;19.55;45.50
78573;BME280;67862;0.000;0.000;2023-04-23T09:14:43;98889.97;;;19.56;45.54
78573;BME280;67862;0.000;0.000;2023-04-23T09:17:08;98882.88;;;19.55;45.62
78573;BME280;67862;0.000;0.000;2023-04-23T09:19:34;98880.97;;;19.55;45.53
78573;BME280;67862;0.000;0.000;2023-04-23T09:22:00;98888.06;;;19.56;45.71
78573;BME280;67862;0.000;0.000;2023-04-23T09:24:26;98874.44;;;19.56;45.76
78573;BME280;67862;0.000;0.000;2023-04-23T09:26:52;98881.50;;;19.57;45.71
78573;BME280;67862;0.000;0.000;2023-04-23T09:29:22;98882.31;;;19.58;45.77
78573;BME280;67862;0.000;0.000;2023-04-23T09:31:49;98882.31;;;19.58;45.58
78573;BME280;67862;0.000;0.000;2023-04-23T09:34:18;98873.06;;;19.59;45.57
78573;BME280;67862;0.000;0.000;2023-04-23T09:36:44;98869.25;;;19.60;45.56
78573;BME280;67862;0.000;0.000;2023-04-23T09:39:10;98871.19;;;19.59;45.75
78573;BME280;67862;0.000;0.000;2023-04-23T09:41:36;98874.72;;;19.60;45.70
78573;BME280;67862;0.000;0.000;2023-04-23T09:44:04;98866.25;;;19.61;45.55
78573;BME280;67862;0.000;0.000;2023-04-23T09:46:39;98872.78;;;19.60;45.75
78573;BME280;67862;0.000;0.000;2023-04-23T09:49:06;98868.97;;;19.61;45.67
78573;BME280;67862;0.000;0.000;2023-04-23T09:51:35;98865.16;;;19.62;45.48
78573;BME280;67862;0.000;0.000;2023-04-23T09:54:01;98874.13;;;19.63;45.70
78573;BME280;67862;0.000;0.000;2023-04-23T09:56:29;98865.66;;;19.64;45.55
78573;BME280;67862;0.000;0.000;2023-04-23T09:58:56;98861.31;;;19.63;45.66
78573;BME280;67862;0.000;0.000;2023-04-23T10:01:28;98857.78;;;19.63;45.47
78573;BME280;67862;0.000;0.000;2023-04-23T10:03:54;98853.97;;;19.64;45.66
78573;BME280;67862;0.000;0.000;2023-04-23T10:06:25;98851.25;;;19.64;45.71
78573;BME280;67862;0.000;0.000;2023-04-23T10:08:53;98850.94;;;19.65;45.52
78573;BME280;67862;0.000;0.000;2023-04-23T10:11:20;98843.88;;;19.64;45.75
78573;BME280;67862;0.000;0.000;2023-04-23T10:13:46;98845.50;;;19.65;45.72
78573;BME280;67862;0.000;0.000;2023-04-23T10:16:12;98837.34;;;19.65;45.58
78573;BME280;67862;0.000;0.000;2023-04-23T10:18:37;98837.34;;;19.65;45.45
78573;BME280;67862;0.000;0.000;2023-04-23T10:21:03;98829.97;;;19.66;45.79
78573;BME280;67862;0.000;0.000;2023-04-23T10:23:29;98826.16;;;19.67;45.52
78573;BME280;67862;0.000;0.000;2023-04-23T10:25:57;98829.44;;;19.69;45.69
78573;BME280;67862;0.000;0.000;2023-04-23T10:28:25;98828.59;;;19.68;45.72
78573;BME280;67862;0.000;0.000;2023-04-23T10:30:56;98836.75;;;19.68;45.73
78573;BME280;67862;0.000;0.000;2023-04-23T10:33:23;98833.75;;;19.70;45.71
78573;BME280;67862;0.000;0.000;2023-04-23T10:35:50;98825.59;;;19.70;45.63
78573;BME280;67862;0.000;0.000;2023-04-23T10:38:17;98830.22;;;19.69;45.71
78573;BME280;67862;0.000;0.000;2023-04-23T10:40:44;98830.75;;;19.71;45.49
78573;BME280;67862;0.000;0.000;2023-04-23T10:43:11;98822.59;;;19.71;45.59
78573;BME280;67862;0.000;0.000;2023-04-23T10:45:36;98817.13;;;19.71;45.69
78573;BME280;67862;0.000;0.000;2023-04-23T10:48:02;98816.03;;;19.72;45.62
78573;BME280;67862;0.000;0.000;2023-04-23T10:50:29;98817.94;;;19.72;45.50
78573;BME280;67862;0.000;0.000;2023-04-23T10:52:55;98814.41;;;19.71;45.45
78573;BME280;67862;0.000;0.000;2023-04-23T10:55:25;98816.03;;;19.72;45.61
78573;BME280;67862;0.000;0.000;2023-04-23T10:57:55;98809.47;;;19.73;45.65
78573;BME280;67862;0.000;0.000;2023-04-23T11:00:24;98809.47;;;19.73;45.43
78573;BME280;67862;0.000;0.000;2023-04-23T11:02:50;98810.28;;;19.74;45.66
78573;BME280;67862;0.000;0.000;2023-04-23T11:05:17;98810.00;;;19.76;45.43
78573;BME280;67862;0.000;0.000;2023-04-23T11:07:44;98807.28;;;19.76;45.68
78573;BME280;67862;0.000;0.000;2023-04-23T11:10:26;98808.09;;;19.76;45.54
78573;BME280;67862;0.000;0.000;2023-04-23T11:12:51;98801.53;;;19.77;45.47
78573;BME280;67862;0.000;0.000;2023-04-23T11:15:17;98801.53;;;19.77;45.56
78573;BME280;67862;0.000;0.000;2023-04-23T11:20:17;98800.72;;;19.77;45.57
78573;BME280;67862;0.000;0.000;2023-04-23T11:22:44;98805.06;;;19.78;45.57
78573;BME280;67862;0.000;0.000;2023-04-23T11:25:13;98805.88;;;19.78;45.60
78573;BME280;67862;0.000;0.000;2023-04-23T11:27:42;98801.81;;;19.76;45.54
78573;BME280;67862;0.000;0.000;2023-04-23T11:30:26;98801.53;;;19.77;45.62
78573;BME280;67862;0.000;0.000;2023-04-23T11:32:53;98792.56;;;19.77;45.75
78573;BME280;67862;0.000;0.000;2023-04-23T11:35:19;98798.81;;;19.77;45.57
78573;BME280;67862;0.000;0.000;2023-04-23T11:37:46;98788.72;;;19.78;45.77
78573;BME280;67862;0.000;0.000;2023-04-23T11:40:17;98796.34;;;19.81;45.48
78573;BME280;67862;0.000;0.000;2023-04-23T11:42:46;98784.34;;;19.82;45.54
78573;BME280;67862;0.000;0.000;2023-04-23T11:45:20;98792.22;;;19.83;45.32
78573;BME280;67862;0.000;0.000;2023-04-23T11:47:48;98787.59;;;19.84;45.54
78573;BME280;67862;0.000;0.000;2023-04-23T11:50:30;98787.88;;;19.82;45.69
78573;BME280;67862;0.000;0.000;2023-04-23T11:52:57;98784.34;;;19.82;45.51
78573;BME280;67862;0.000;0.000;2023-04-23T11:55:22;98784.34;;;19.82;45.37
78573;BME280;67862;0.000;0.000;2023-04-23T11:57:48;98789.78;;;19.82;45.53
78573;BME280;67862;0.000;0.000;2023-04-23T12:00:15;98778.91;;;19.82;45.65
78573;BME280;67862;0.000;0.000;2023-04-23T12:08:04;98783.72;;;19.90;45.32
78573;BME280;67862;0.000;0.000;2023-04-23T12:10:30;98780.69;;;19.91;45.46
78573;BME280;67862;0.000;0.000;2023-04-23T12:12:57;98772.22;;;19.93;45.38
78573;BME280;67862;0.000;0.000;2023-04-23T12:15:22;98772.75;;;19.95;45.48
78573;BME280;67862;0.000;0.000;2023-04-23T12:17:53;98765.91;;;19.97;45.45
78573;BME280;67862;0.000;0.000;2023-04-23T12:20:32;98765.63;;;19.99;45.33
78573;BME280;67862;0.000;0.000;2023-04-23T12:23:02;98755.25;;;20.01;45.32
78573;BME280;67862;0.000;0.000;2023-04-23T12:25:28;98749.78;;;20.01;45.21
78573;BME280;67862;0.000;0.000;2023-04-23T12:27:53;98741.31;;;20.02;45.44
78573;BME280;67862;0.000;0.000;2023-04-23T12:30:27;98744.88;;;20.03;45.31
78573;BME280;67862;0.000;0.000;2023-04-23T12:32:57;98750.81;;;20.05;45.14
78573;BME280;67862;0.000;0.000;2023-04-23T12:35:36;98741.53;;;20.06;45.45
78573;BME280;67862;0.000;0.000;2023-04-23T12:38:03;98736.63;;;20.08;45.35
78573;BME280;67862;0.000;0.000;2023-04-23T12:40:29;98740.16;;;20.09;45.24
78573;BME280;67862;0.000;0.000;2023-04-23T12:42:54;98737.16;;;20.10;45.21
78573;BME280;67862;0.000;0.000;2023-04-23T12:45:20;98739.56;;;20.12;45.05
78573;BME280;67862;0.000;0.000;2023-04-23T12:47:45;98742.00;;;20.13;45.03
78573;BME280;67862;0.000;0.000;2023-04-23T12:50:11;98738.16;;;20.14;45.11
78573;BME280;67862;0.000;0.000;2023-04-23T12:52:36;98733.53;;;20.15;44.96
78573;BME280;67862;0.000;0.000;2023-04-23T12:55:02;98731.31;;;20.17;44.99
78573;BME280;67862;0.000;0.000;2023-04-23T12:57:29;98737.59;;;20.17;45.11
78573;BME280;67862;0.000;0.000;2023-04-23T12:59:54;98732.16;;;20.17;44.96
78573;BME280;67862;0.000;0.000;2023-04-23T13:02:20;98722.88;;;20.18;45.04
78573;BME280;67862;0.000;0.000;2023-04-23T13:04:45;98717.44;;;20.18;45.06
78573;BME280;67862;0.000;0.000;2023-04-23T13:07:11;98715.22;;;20.20;45.01
78573;BME280;67862;0.000;0.000;2023-04-23T13:09:36;98712.50;;;20.20;44.97
78573;BME280;67862;0.000;0.000;2023-04-23T13:12:02;98713.59;;;20.19;44.90
78573;BME280;67862;0.000;0.000;2023-04-23T13:14:27;98711.09;;;20.23;44.96
78573;BME280;67862;0.000;0.000;2023-04-23T13:16:52;98708.72;;;20.16;45.25